Time;durP1;ratioP1;P1;durP2;ratioP2;P2;SDS_P1;SDS_P2;PMS_P1;PMS_P2;Temp;Humidity;BMP_temperature;BMP_pressure;BME280_temperature;BME280_humidity;BME280_pressure;Samples;Min_cycle;Max_cycle;Signal;HPM_P1;HPM_P2
2021/05/19 00:01:30;;;;;;;43.70;30.07;;;;;;;;;;5033371;28;20208;-60
2021/05/19 00:03:56;;;;;;;42.00;29.73;;;;;;;;;;5035085;28;20749;-58
2021/05/19 00:06:23;;;;;;;41.73;29.60;;;;;;;;;;5035036;28;20221;-54
2021/05/19 00:08:50;;;;;;;45.13;30.00;;;;;;;;;;5034864;28;20629;-56
2021/05/19 00:11:17;;;;;;;42.23;30.03;;;;;;;;;;5035085;28;20281;-58
2021/05/19 00:13:43;;;;;;;43.00;29.40;;;;;;;;;;5035064;28;20265;-58
2021/05/19 00:16:10;;;;;;;40.87;29.43;;;;;;;;;;5035065;28;20256;-59
2021/05/19 00:18:36;;;;;;;42.83;28.90;;;;;;;;;;5034903;28;20292;-58
2021/05/19 00:21:04;;;;;;;44.27;29.97;;;;;;;;;;5034528;28;20215;-60
2021/05/19 00:23:30;;;;;;;48.20;31.17;;;;;;;;;;5034766;28;20617;-59
2021/05/19 00:25:58;;;;;;;44.23;30.97;;;;;;;;;;5034832;28;20210;-58
2021/05/19 00:28:24;;;;;;;50.67;34.43;;;;;;;;;;5034792;28;20205;-58
2021/05/19 00:30:55;;;;;;;50.03;33.33;;;;;;;;;;5034498;28;20252;-57
2021/05/19 00:33:21;;;;;;;54.87;36.63;;;;;;;;;;5034591;28;20210;-56
2021/05/19 00:35:48;;;;;;;63.27;37.97;;;;;;;;;;5034405;28;20217;-57
2021/05/19 00:38:14;;;;;;;68.13;39.47;;;;;;;;;;5034305;28;20256;-60
2021/05/19 00:40:41;;;;;;;65.63;38.67;;;;;;;;;;5034521;28;20210;-57
2021/05/19 00:43:08;;;;;;;63.03;37.93;;;;;;;;;;5034483;28;20207;-59
2021/05/19 00:45:35;;;;;;;61.13;38.30;;;;;;;;;;5034422;28;20280;-59
2021/05/19 00:48:01;;;;;;;71.90;40.17;;;;;;;;;;5034474;28;20209;-59
2021/05/19 00:50:29;;;;;;;68.27;40.40;;;;;;;;;;5034039;28;20207;-58
2021/05/19 00:52:56;;;;;;;65.30;39.37;;;;;;;;;;5034466;28;20223;-58
2021/05/19 00:55:23;;;;;;;65.03;37.83;;;;;;;;;;5034005;28;20679;-56
2021/05/19 00:57:51;;;;;;;59.40;36.20;;;;;;;;;;5034039;28;20277;-56
2021/05/19 01:00:20;;;;;;;62.97;35.43;;;;;;;;;;5033972;28;20277;-58
2021/05/19 01:02:46;;;;;;;61.10;36.10;;;;;;;;;;5034139;28;20206;-59
2021/05/19 01:05:18;;;;;;;60.20;37.50;;;;;;;;;;5033717;28;20276;-61
2021/05/19 01:10:25;;;;;;;74.20;40.50;;;;;;;;;;5033709;28;20238;-60
2021/05/19 01:12:52;;;;;;;92.97;45.37;;;;;;;;;;5033362;28;20210;-58
2021/05/19 01:15:20;;;;;;;138.87;57.40;;;;;;;;;;5033627;28;20249;-61
2021/05/19 01:17:46;;;;;;;182.60;68.27;;;;;;;;;;5033649;28;20767;-60
2021/05/19 01:20:14;;;;;;;186.47;68.10;;;;;;;;;;5033964;28;20268;-60
2021/05/19 01:22:42;;;;;;;191.20;67.37;;;;;;;;;;5034602;28;20202;-58
2021/05/19 01:25:09;;;;;;;179.40;66.57;;;;;;;;;;5034263;28;20317;-59
2021/05/19 01:27:35;;;;;;;167.83;66.30;;;;;;;;;;5033841;28;20203;-60
2021/05/19 01:30:03;;;;;;;150.37;64.13;;;;;;;;;;5033415;28;20202;-59
2021/05/19 01:32:29;;;;;;;144.97;62.70;;;;;;;;;;5033835;28;20206;-60
2021/05/19 01:34:56;;;;;;;179.73;69.17;;;;;;;;;;5034629;28;20230;-60
2021/05/19 01:37:23;;;;;;;194.10;74.00;;;;;;;;;;5033879;28;20249;-58
2021/05/19 01:39:50;;;;;;;227.87;82.63;;;;;;;;;;5033453;28;20234;-60
2021/05/19 01:42:17;;;;;;;216.30;79.43;;;;;;;;;;5033494;28;20203;-60
2021/05/19 01:44:43;;;;;;;218.17;79.33;;;;;;;;;;5033316;28;20272;-60
2021/05/19 01:47:10;;;;;;;213.37;79.17;;;;;;;;;;5033693;28;20206;-55
2021/05/19 01:49:39;;;;;;;215.10;76.40;;;;;;;;;;5033332;28;20210;-51
2021/05/19 01:52:06;;;;;;;210.77;78.00;;;;;;;;;;5033201;28;20210;-58
2021/05/19 01:54:33;;;;;;;212.13;78.67;;;;;;;;;;5033932;28;20234;-60
2021/05/19 01:57:00;;;;;;;214.00;77.53;;;;;;;;;;5033358;28;20702;-55
2021/05/19 01:59:27;;;;;;;221.70;77.90;;;;;;;;;;5035678;28;20230;-59
2021/05/19 02:01:54;;;;;;;212.17;76.63;;;;;;;;;;5039779;28;20206;-60
2021/05/19 02:04:20;;;;;;;212.27;74.60;;;;;;;;;;5037476;28;20230;-60
2021/05/19 02:06:47;;;;;;;175.63;71.63;;;;;;;;;;5036110;28;20214;-58
2021/05/19 02:09:15;;;;;;;165.03;67.10;;;;;;;;;;5033139;28;20199;-60
2021/05/19 02:11:41;;;;;;;151.40;66.87;;;;;;;;;;5032733;28;20206;-57
2021/05/19 02:14:09;;;;;;;151.53;62.43;;;;;;;;;;5032753;28;20230;-56
2021/05/19 02:16:35;;;;;;;147.10;61.87;;;;;;;;;;5032726;28;20557;-59
2021/05/19 02:19:02;;;;;;;159.93;65.03;;;;;;;;;;5032628;28;20230;-58
2021/05/19 02:21:28;;;;;;;192.20;71.17;;;;;;;;;;5032893;28;20210;-59
2021/05/19 02:23:55;;;;;;;190.73;70.27;;;;;;;;;;5032609;28;20241;-57
2021/05/19 02:26:22;;;;;;;171.23;68.17;;;;;;;;;;5032723;28;20206;-59
2021/05/19 02:28:48;;;;;;;174.63;70.17;;;;;;;;;;5032806;28;20588;-60
2021/05/19 02:31:16;;;;;;;176.93;69.90;;;;;;;;;;5032792;28;20213;-57
2021/05/19 02:33:42;;;;;;;151.43;64.20;;;;;;;;;;5032507;28;20245;-59
2021/05/19 02:36:09;;;;;;;178.43;67.73;;;;;;;;;;5032424;28;20210;-59
2021/05/19 02:38:36;;;;;;;192.10;69.87;;;;;;;;;;5033752;28;20233;-57
2021/05/19 02:41:02;;;;;;;202.43;74.13;;;;;;;;;;5035307;28;20257;-58
2021/05/19 02:43:29;;;;;;;209.13;73.40;;;;;;;;;;5034665;28;20206;-60
2021/05/19 02:45:55;;;;;;;210.47;74.17;;;;;;;;;;5032672;28;20214;-58
2021/05/19 02:48:23;;;;;;;199.70;72.40;;;;;;;;;;5032538;28;20202;-57
2021/05/19 02:50:50;;;;;;;203.93;72.87;;;;;;;;;;5032745;28;20202;-59
2021/05/19 02:53:16;;;;;;;181.50;69.00;;;;;;;;;;5032290;28;20213;-59
2021/05/19 02:55:44;;;;;;;169.60;67.90;;;;;;;;;;5032649;28;20230;-56
2021/05/19 02:58:10;;;;;;;152.83;64.77;;;;;;;;;;5032250;28;20694;-56
2021/05/19 03:00:37;;;;;;;142.17;61.43;;;;;;;;;;5032500;28;20256;-57
2021/05/19 03:03:03;;;;;;;123.30;55.00;;;;;;;;;;5032351;28;20701;-59
2021/05/19 03:05:31;;;;;;;117.37;53.87;;;;;;;;;;5032076;28;20230;-57
2021/05/19 03:07:57;;;;;;;103.13;53.03;;;;;;;;;;5032077;28;20202;-59
2021/05/19 03:10:24;;;;;;;99.73;50.67;;;;;;;;;;5031640;28;20721;-55
2021/05/19 03:12:51;;;;;;;117.67;54.63;;;;;;;;;;5031821;28;20745;-56
2021/05/19 03:15:19;;;;;;;137.90;59.73;;;;;;;;;;5031610;28;20237;-57
2021/05/19 03:17:45;;;;;;;153.27;63.23;;;;;;;;;;5031919;28;20222;-57
2021/05/19 03:20:12;;;;;;;172.37;67.03;;;;;;;;;;5031458;28;20256;-54
2021/05/19 03:22:40;;;;;;;175.37;71.00;;;;;;;;;;5031704;28;20583;-58
2021/05/19 03:25:07;;;;;;;189.57;71.80;;;;;;;;;;5031901;28;20230;-56
2021/05/19 03:27:34;;;;;;;211.00;74.90;;;;;;;;;;5031855;28;20574;-58
2021/05/19 03:30:00;;;;;;;210.27;72.67;;;;;;;;;;5031795;28;20297;-56
2021/05/19 03:32:27;;;;;;;222.33;79.00;;;;;;;;;;5031900;28;20561;-58
2021/05/19 03:34:53;;;;;;;229.40;80.37;;;;;;;;;;5031796;28;20261;-59
2021/05/19 03:37:20;;;;;;;225.93;82.97;;;;;;;;;;5035310;28;20210;-60
2021/05/19 03:39:47;;;;;;;191.77;76.67;;;;;;;;;;5035583;28;20787;-63
2021/05/19 03:42:14;;;;;;;188.80;77.13;;;;;;;;;;5035937;28;20202;-56
2021/05/19 03:44:40;;;;;;;172.57;73.07;;;;;;;;;;5035421;28;20705;-58
2021/05/19 03:47:07;;;;;;;185.60;77.33;;;;;;;;;;5035568;28;20203;-57
2021/05/19 03:49:37;;;;;;;197.37;83.27;;;;;;;;;;5035381;28;20237;-58
2021/05/19 03:52:04;;;;;;;184.27;81.13;;;;;;;;;;5035468;28;20608;-55
2021/05/19 03:54:34;;;;;;;187.57;79.10;;;;;;;;;;5035368;28;20230;-60
2021/05/19 03:57:01;;;;;;;185.67;80.30;;;;;;;;;;5035499;28;20216;-58
2021/05/19 03:59:28;;;;;;;184.37;75.77;;;;;;;;;;5035190;28;20597;-59
2021/05/19 04:01:54;;;;;;;159.93;73.33;;;;;;;;;;5035073;28;20221;-59
2021/05/19 04:04:21;;;;;;;159.00;71.53;;;;;;;;;;5034960;28;20230;-58
2021/05/19 04:06:47;;;;;;;150.67;69.43;;;;;;;;;;5035247;28;20559;-58
2021/05/19 04:09:14;;;;;;;147.77;67.50;;;;;;;;;;5035298;28;20202;-55
2021/05/19 04:11:41;;;;;;;134.00;67.83;;;;;;;;;;5034891;28;20202;-58
2021/05/19 04:14:08;;;;;;;143.40;65.97;;;;;;;;;;5034870;28;20254;-59
2021/05/19 04:16:35;;;;;;;119.53;63.57;;;;;;;;;;5034657;28;20206;-56
2021/05/19 04:19:02;;;;;;;131.80;67.03;;;;;;;;;;5035295;28;20226;-60
2021/05/19 04:21:29;;;;;;;124.43;62.90;;;;;;;;;;5032826;28;20256;-60
2021/05/19 04:23:55;;;;;;;122.13;60.90;;;;;;;;;;5034699;28;20312;-60
2021/05/19 04:26:22;;;;;;;110.17;58.57;;;;;;;;;;5034811;28;20206;-58
2021/05/19 04:28:49;;;;;;;100.13;54.67;;;;;;;;;;5034583;28;20211;-57
2021/05/19 04:31:16;;;;;;;94.97;54.27;;;;;;;;;;5034391;28;20206;-60
2021/05/19 04:33:43;;;;;;;92.33;52.73;;;;;;;;;;5033894;28;20732;-56
2021/05/19 04:36:10;;;;;;;81.97;48.10;;;;;;;;;;5048298;28;20619;-60
2021/05/19 04:38:36;;;;;;;88.97;49.80;;;;;;;;;;5054206;28;20224;-61
2021/05/19 04:41:03;;;;;;;80.27;49.07;;;;;;;;;;5054315;28;20286;-57
2021/05/19 04:43:29;;;;;;;77.17;47.10;;;;;;;;;;5054530;28;20723;-57
2021/05/19 04:45:56;;;;;;;75.27;45.73;;;;;;;;;;5035561;28;20237;-60
2021/05/19 04:48:23;;;;;;;71.77;43.77;;;;;;;;;;5033431;28;20203;-64
2021/05/19 04:50:50;;;;;;;76.30;45.00;;;;;;;;;;5034563;28;20199;-56
2021/05/19 04:53:16;;;;;;;70.17;42.63;;;;;;;;;;5034192;28;20207;-56
2021/05/19 04:55:43;;;;;;;65.07;42.70;;;;;;;;;;5033989;28;20226;-57
2021/05/19 04:58:09;;;;;;;73.27;44.40;;;;;;;;;;5034008;28;20647;-55
2021/05/19 05:00:37;;;;;;;70.47;43.97;;;;;;;;;;5033968;28;20251;-63
2021/05/19 05:03:03;;;;;;;69.23;44.67;;;;;;;;;;5033811;28;20253;-57
2021/05/19 05:05:30;;;;;;;69.13;42.87;;;;;;;;;;5043532;28;20232;-54
2021/05/19 05:07:57;;;;;;;63.97;42.27;;;;;;;;;;5054024;28;20236;-57
2021/05/19 05:10:23;;;;;;;59.13;40.80;;;;;;;;;;5053841;28;20208;-57
2021/05/19 05:12:50;;;;;;;55.40;38.80;;;;;;;;;;5053715;28;20244;-54
2021/05/19 05:15:18;;;;;;;52.20;37.87;;;;;;;;;;5050073;28;20295;-57
2021/05/19 05:17:45;;;;;;;49.97;35.90;;;;;;;;;;5053629;28;20659;-54
2021/05/19 05:20:12;;;;;;;46.13;35.67;;;;;;;;;;5053310;28;20209;-56
2021/05/19 05:22:39;;;;;;;45.57;33.90;;;;;;;;;;5040115;28;20230;-57
2021/05/19 05:25:07;;;;;;;45.30;32.97;;;;;;;;;;5033366;28;20226;-56
2021/05/19 05:27:33;;;;;;;49.30;33.63;;;;;;;;;;5036193;28;20212;-58
2021/05/19 05:30:00;;;;;;;45.37;32.70;;;;;;;;;;5033509;28;20206;-56
2021/05/19 05:32:26;;;;;;;37.70;29.03;;;;;;;;;;5033568;28;20219;-53
2021/05/19 05:34:53;;;;;;;37.60;28.00;;;;;;;;;;5033414;28;20599;-57
2021/05/19 05:37:21;;;;;;;34.77;27.73;;;;;;;;;;5040123;28;20202;-59
2021/05/19 05:39:48;;;;;;;31.53;25.53;;;;;;;;;;5042661;28;20231;-56
2021/05/19 05:42:15;;;;;;;31.53;25.23;;;;;;;;;;5032853;28;20205;-58
2021/05/19 05:44:41;;;;;;;32.27;25.50;;;;;;;;;;5033211;28;20597;-59
2021/05/19 05:47:08;;;;;;;36.00;25.53;;;;;;;;;;5033362;28;20208;-59
2021/05/19 05:49:34;;;;;;;35.93;26.77;;;;;;;;;;5033485;28;20210;-58
2021/05/19 05:52:01;;;;;;;35.97;25.30;;;;;;;;;;5033243;28;20214;-57
2021/05/19 05:54:27;;;;;;;36.23;27.07;;;;;;;;;;5033973;28;20237;-60
2021/05/19 05:56:57;;;;;;;27.73;21.87;;;;;;;;;;5048873;28;20219;-61
2021/05/19 05:59:23;;;;;;;25.83;20.47;;;;;;;;;;5058716;28;20285;-60
2021/05/19 06:01:50;;;;;;;26.90;20.00;;;;;;;;;;5052931;28;20212;-60
2021/05/19 06:04:16;;;;;;;28.60;19.47;;;;;;;;;;5054007;28;20598;-59
2021/05/19 06:06:43;;;;;;;20.57;17.60;;;;;;;;;;5058505;28;20214;-60
2021/05/19 06:09:09;;;;;;;22.70;16.43;;;;;;;;;;5058715;28;20202;-62
2021/05/19 06:11:36;;;;;;;20.40;13.70;;;;;;;;;;5055938;28;20572;-59
2021/05/19 06:14:03;;;;;;;24.43;15.43;;;;;;;;;;5052107;28;20233;-58
2021/05/19 06:16:30;;;;;;;22.43;15.80;;;;;;;;;;5052151;28;20232;-57
2021/05/19 06:18:56;;;;;;;21.50;15.83;;;;;;;;;;5052467;28;20236;-60
2021/05/19 06:21:23;;;;;;;24.97;16.33;;;;;;;;;;5051943;28;20209;-59
2021/05/19 06:23:49;;;;;;;22.53;14.80;;;;;;;;;;5051816;28;20225;-58
2021/05/19 06:26:16;;;;;;;21.90;13.97;;;;;;;;;;5051938;28;20225;-59
2021/05/19 06:28:42;;;;;;;23.27;13.63;;;;;;;;;;5052363;28;20250;-56
2021/05/19 06:31:10;;;;;;;19.80;14.63;;;;;;;;;;5051805;28;20217;-53
2021/05/19 06:33:36;;;;;;;22.07;13.20;;;;;;;;;;5051829;28;20206;-61
2021/05/19 06:36:03;;;;;;;18.63;13.90;;;;;;;;;;5051649;28;20209;-62
2021/05/19 06:38:30;;;;;;;19.33;12.97;;;;;;;;;;5051341;28;20233;-65
2021/05/19 06:40:56;;;;;;;15.67;11.93;;;;;;;;;;5052103;28;20559;-66
2021/05/19 06:43:23;;;;;;;15.90;10.03;;;;;;;;;;5051893;28;20263;-65
2021/05/19 06:45:49;;;;;;;15.80;10.97;;;;;;;;;;5051742;28;20217;-65
2021/05/19 06:48:16;;;;;;;14.63;10.10;;;;;;;;;;5051641;28;20208;-61
2021/05/19 06:50:45;;;;;;;13.93;10.60;;;;;;;;;;5051347;28;20216;-61
2021/05/19 06:53:11;;;;;;;11.13;8.77;;;;;;;;;;5052217;28;20213;-61
2021/05/19 06:55:39;;;;;;;18.03;9.53;;;;;;;;;;5051623;28;20252;-60
2021/05/19 06:58:05;;;;;;;15.07;9.10;;;;;;;;;;5051468;28;20609;-61
2021/05/19 07:00:32;;;;;;;13.03;8.33;;;;;;;;;;5051455;28;20205;-60
2021/05/19 07:02:58;;;;;;;13.90;7.97;;;;;;;;;;5051771;28;20213;-58
2021/05/19 07:05:26;;;;;;;18.00;8.37;;;;;;;;;;5051280;28;20234;-59
2021/05/19 07:07:52;;;;;;;17.80;9.30;;;;;;;;;;5051070;28;20570;-59
2021/05/19 07:10:19;;;;;;;11.80;7.77;;;;;;;;;;5050783;28;20210;-60
2021/05/19 07:12:45;;;;;;;13.33;8.43;;;;;;;;;;5051197;28;20213;-63
2021/05/19 07:15:14;;;;;;;13.43;8.50;;;;;;;;;;5051633;28;20364;-65
2021/05/19 07:17:41;;;;;;;12.67;7.17;;;;;;;;;;5051448;28;20304;-64
2021/05/19 07:20:09;;;;;;;14.53;8.50;;;;;;;;;;5050909;28;20221;-60
2021/05/19 07:22:36;;;;;;;11.90;7.57;;;;;;;;;;5051220;28;20217;-62
2021/05/19 07:25:03;;;;;;;17.03;8.13;;;;;;;;;;5051353;28;20233;-65
2021/05/19 07:27:29;;;;;;;12.40;7.30;;;;;;;;;;5051192;28;20589;-64
2021/05/19 07:29:56;;;;;;;12.07;7.70;;;;;;;;;;5051323;28;20209;-63
2021/05/19 07:32:22;;;;;;;11.90;7.43;;;;;;;;;;5050999;28;20685;-62
2021/05/19 07:34:49;;;;;;;13.00;8.07;;;;;;;;;;5051013;28;20230;-66
2021/05/19 07:37:15;;;;;;;8.73;5.87;;;;;;;;;;5050849;28;20746;-67
2021/05/19 07:39:43;;;;;;;11.00;6.10;;;;;;;;;;5051411;28;20233;-67
2021/05/19 07:42:16;;;;;;;10.37;5.70;;;;;;;;;;5051013;28;20603;-67
2021/05/19 07:44:42;;;;;;;10.13;5.97;;;;;;;;;;5049709;28;20724;-68
2021/05/19 07:47:09;;;;;;;12.40;5.97;;;;;;;;;;5030946;28;20206;-65
2021/05/19 07:49:35;;;;;;;11.60;6.37;;;;;;;;;;5031530;28;20244;-65
2021/05/19 07:52:02;;;;;;;15.40;6.03;;;;;;;;;;5031395;28;20202;-60
2021/05/19 07:54:30;;;;;;;12.37;5.47;;;;;;;;;;5031430;28;20230;-65
2021/05/19 07:57:00;;;;;;;11.07;5.33;;;;;;;;;;5030989;28;20210;-65
2021/05/19 07:59:28;;;;;;;11.20;5.90;;;;;;;;;;5030771;28;20231;-65
2021/05/19 08:02:03;;;;;;;8.87;5.53;;;;;;;;;;5031116;28;20342;-65
2021/05/19 08:04:30;;;;;;;11.10;5.87;;;;;;;;;;5031072;28;20256;-63
2021/05/19 08:06:57;;;;;;;9.60;5.03;;;;;;;;;;5048144;28;20229;-63
2021/05/19 08:09:23;;;;;;;11.43;4.37;;;;;;;;;;5050982;28;20206;-63
2021/05/19 08:11:50;;;;;;;12.73;4.67;;;;;;;;;;5050783;28;20270;-64
2021/05/19 08:14:17;;;;;;;13.97;4.90;;;;;;;;;;5050543;28;20233;-63
2021/05/19 08:16:44;;;;;;;8.10;4.40;;;;;;;;;;5050620;28;20209;-64
2021/05/19 08:19:10;;;;;;;6.77;4.63;;;;;;;;;;5050965;28;20225;-63
2021/05/19 08:21:37;;;;;;;7.43;4.13;;;;;;;;;;5051258;28;20225;-64
2021/05/19 08:24:04;;;;;;;7.40;4.07;;;;;;;;;;5054213;28;20229;-63
2021/05/19 08:26:30;;;;;;;10.00;4.87;;;;;;;;;;5053950;28;20233;-66
2021/05/19 08:28:57;;;;;;;6.30;4.23;;;;;;;;;;5054100;28;20206;-63
2021/05/19 08:31:24;;;;;;;7.90;3.90;;;;;;;;;;5054363;28;20227;-62
2021/05/19 08:33:51;;;;;;;8.10;3.97;;;;;;;;;;5054353;28;20230;-63
2021/05/19 08:36:18;;;;;;;7.33;3.87;;;;;;;;;;5053984;28;20263;-63
2021/05/19 08:38:45;;;;;;;9.17;3.20;;;;;;;;;;5053551;28;20229;-63
2021/05/19 08:41:12;;;;;;;6.17;3.40;;;;;;;;;;5053770;28;20209;-61
2021/05/19 08:43:38;;;;;;;6.27;4.00;;;;;;;;;;5054481;28;20300;-59
2021/05/19 08:46:05;;;;;;;9.10;3.53;;;;;;;;;;5054011;28;20279;-62
2021/05/19 08:48:33;;;;;;;10.10;3.37;;;;;;;;;;5054110;28;20212;-62
2021/05/19 08:51:00;;;;;;;8.43;3.63;;;;;;;;;;5053857;28;20213;-62
2021/05/19 08:53:27;;;;;;;6.20;3.80;;;;;;;;;;5053687;28;20232;-64
2021/05/19 08:55:53;;;;;;;8.77;4.07;;;;;;;;;;5053530;28;20205;-63
2021/05/19 08:58:20;;;;;;;12.40;7.10;;;;;;;;;;5053796;28;20225;-62
2021/05/19 09:00:46;;;;;;;13.53;6.13;;;;;;;;;;5053729;28;20209;-58
2021/05/19 09:03:14;;;;;;;8.60;4.40;;;;;;;;;;5053872;28;20586;-58
2021/05/19 09:05:42;;;;;;;8.50;3.63;;;;;;;;;;5053299;28;20225;-59
2021/05/19 09:08:10;;;;;;;6.00;3.67;;;;;;;;;;5053443;28;20671;-57
2021/05/19 09:10:38;;;;;;;8.83;4.70;;;;;;;;;;5053194;28;20209;-61
2021/05/19 09:13:05;;;;;;;8.33;4.60;;;;;;;;;;5053617;28;20271;-59
2021/05/19 09:15:46;;;;;;;6.60;4.30;;;;;;;;;;5053331;28;20263;-58
2021/05/19 09:18:13;;;;;;;6.80;4.23;;;;;;;;;;5037248;28;20217;-59
2021/05/19 09:20:47;;;;;;;10.73;4.13;;;;;;;;;;5033190;28;20206;-59
2021/05/19 09:23:18;;;;;;;8.27;4.77;;;;;;;;;;5033355;28;20217;-62
2021/05/19 09:25:45;;;;;;;11.63;4.90;;;;;;;;;;5033259;28;20222;-64
2021/05/19 09:28:23;;;;;;;10.23;4.83;;;;;;;;;;5033106;28;20206;-61
2021/05/19 09:30:50;;;;;;;8.67;4.33;;;;;;;;;;5033053;28;20300;-63
2021/05/19 09:33:17;;;;;;;7.43;3.67;;;;;;;;;;5032263;28;20210;-62
2021/05/19 09:35:44;;;;;;;6.07;3.53;;;;;;;;;;5032851;28;20232;-56
2021/05/19 09:38:27;;;;;;;8.33;3.23;;;;;;;;;;5032775;28;20210;-61
2021/05/19 09:41:18;;;;;;;10.10;3.20;;;;;;;;;;5032898;28;20205;-61
2021/05/19 09:43:44;;;;;;;8.70;3.60;;;;;;;;;;5012758;28;20237;-57
2021/05/19 09:46:18;;;;;;;7.83;3.60;;;;;;;;;;5032506;28;20272;-57
2021/05/19 09:48:44;;;;;;;7.67;3.77;;;;;;;;;;5032820;28;20548;-58
2021/05/19 09:51:12;;;;;;;6.13;3.07;;;;;;;;;;5032495;28;20206;-60
2021/05/19 09:53:40;;;;;;;8.97;2.90;;;;;;;;;;5032634;28;20220;-54
2021/05/19 09:56:07;;;;;;;5.07;1.83;;;;;;;;;;5032449;28;20675;-49
2021/05/19 09:58:36;;;;;;;4.17;1.70;;;;;;;;;;5032213;28;20229;-52
2021/05/19 10:01:03;;;;;;;4.50;1.60;;;;;;;;;;5032443;28;20289;-48
2021/05/19 10:03:30;;;;;;;4.93;1.60;;;;;;;;;;5033946;28;20214;-61
2021/05/19 10:06:02;;;;;;;6.00;1.50;;;;;;;;;;5034046;28;20213;-62
2021/05/19 10:08:29;;;;;;;4.23;1.80;;;;;;;;;;5032771;28;20203;-62
2021/05/19 10:10:58;;;;;;;7.93;2.00;;;;;;;;;;5033733;28;20239;-57
2021/05/19 10:13:25;;;;;;;5.83;1.87;;;;;;;;;;5036413;28;20210;-62
2021/05/19 10:15:55;;;;;;;5.60;1.90;;;;;;;;;;5035924;28;20214;-61
2021/05/19 10:18:23;;;;;;;6.00;1.90;;;;;;;;;;5033218;28;20203;-61
2021/05/19 10:20:52;;;;;;;4.33;1.60;;;;;;;;;;5032056;28;20206;-60
2021/05/19 10:23:24;;;;;;;5.70;2.27;;;;;;;;;;5031975;28;20214;-57
2021/05/19 10:25:50;;;;;;;8.10;2.40;;;;;;;;;;5032117;28;20210;-55
2021/05/19 10:28:18;;;;;;;7.30;2.60;;;;;;;;;;5031890;28;20670;-57
2021/05/19 10:30:46;;;;;;;7.40;2.10;;;;;;;;;;5031962;28;20213;-56
2021/05/19 10:33:46;;;;;;;5.80;2.10;;;;;;;;;;5031996;28;20256;-57
2021/05/19 10:36:45;;;;;;;7.30;2.13;;;;;;;;;;4951147;29;20559;-58
2021/05/19 10:39:27;;;;;;;14.47;7.63;;;;;;;;;;4951482;29;20225;-58
2021/05/19 10:41:57;;;;;;;13.63;7.30;;;;;;;;;;5014056;28;20210;-57
2021/05/19 10:44:27;;;;;;;3.83;1.50;;;;;;;;;;5035062;28;20576;-60
2021/05/19 10:46:57;;;;;;;4.53;1.40;;;;;;;;;;5050694;28;20233;-57
2021/05/19 10:49:24;;;;;;;4.93;1.33;;;;;;;;;;5051963;28;20209;-57
2021/05/19 10:52:05;;;;;;;4.63;1.30;;;;;;;;;;5051583;28;20202;-58
2021/05/19 10:57:38;;;;;;;4.40;1.67;;;;;;;;;;5030389;28;20731;-61
2021/05/19 11:00:14;;;;;;;8.10;1.83;;;;;;;;;;5051833;28;20222;-61
2021/05/19 11:03:00;;;;;;;4.53;1.40;;;;;;;;;;5051907;28;20213;-62
2021/05/19 11:05:30;;;;;;;4.50;1.30;;;;;;;;;;5051610;28;20279;-61
2021/05/19 11:08:11;;;;;;;4.37;1.50;;;;;;;;;;5044970;28;20245;-60
2021/05/19 11:10:39;;;;;;;4.63;1.57;;;;;;;;;;5031309;28;20313;-58
2021/05/19 11:13:06;;;;;;;6.00;1.70;;;;;;;;;;5032169;28;20244;-59
2021/05/19 11:15:56;;;;;;;5.30;1.93;;;;;;;;;;5030980;28;20234;-60
2021/05/19 11:18:34;;;;;;;14.50;5.93;;;;;;;;;;5031340;28;20245;-57
2021/05/19 11:21:02;;;;;;;7.13;1.60;;;;;;;;;;5031557;28;20213;-58
2021/05/19 11:23:28;;;;;;;7.10;1.97;;;;;;;;;;5031741;28;20577;-55
2021/05/19 11:26:09;;;;;;;7.47;2.30;;;;;;;;;;5031170;28;20202;-58
2021/05/19 11:28:35;;;;;;;10.40;2.73;;;;;;;;;;5038040;28;20209;-58
2021/05/19 11:31:09;;;;;;;7.37;2.70;;;;;;;;;;5051587;28;20209;-60
2021/05/19 11:33:50;;;;;;;12.27;2.40;;;;;;;;;;5051100;28;20212;-57
2021/05/19 11:36:27;;;;;;;5.47;2.27;;;;;;;;;;5050987;28;20296;-56
2021/05/19 11:38:54;;;;;;;8.83;2.60;;;;;;;;;;5031617;28;20251;-60
2021/05/19 11:41:21;;;;;;;8.03;2.80;;;;;;;;;;5031208;28;20209;-56
2021/05/19 11:43:48;;;;;;;7.53;2.50;;;;;;;;;;5031278;28;20226;-63
2021/05/19 11:46:15;;;;;;;10.83;3.20;;;;;;;;;;5031614;28;20596;-54
2021/05/19 11:48:48;;;;;;;6.53;1.97;;;;;;;;;;5031286;28;20199;-56
2021/05/19 11:51:18;;;;;;;7.70;2.03;;;;;;;;;;5030983;28;20247;-53
2021/05/19 11:53:55;;;;;;;7.63;1.80;;;;;;;;;;5031055;28;20222;-56
2021/05/19 11:56:21;;;;;;;7.77;2.20;;;;;;;;;;5031179;28;20221;-54
2021/05/19 11:58:48;;;;;;;6.77;1.90;;;;;;;;;;5034895;28;20245;-53
2021/05/19 12:01:18;;;;;;;5.63;1.80;;;;;;;;;;5034790;28;20202;-57
2021/05/19 12:03:46;;;;;;;8.50;2.07;;;;;;;;;;5034939;28;20253;-58
2021/05/19 12:06:15;;;;;;;10.03;2.30;;;;;;;;;;5034855;28;20328;-57
2021/05/19 12:08:43;;;;;;;5.83;1.93;;;;;;;;;;5034754;28;20199;-58
2021/05/19 12:11:11;;;;;;;5.27;1.80;;;;;;;;;;5034656;28;20214;-58
2021/05/19 12:13:38;;;;;;;7.33;2.13;;;;;;;;;;5034457;28;20733;-55
2021/05/19 12:16:06;;;;;;;4.33;1.70;;;;;;;;;;5034646;28;20214;-52
2021/05/19 12:18:33;;;;;;;5.17;1.60;;;;;;;;;;5034755;28;20214;-54
2021/05/19 12:21:00;;;;;;;7.33;1.50;;;;;;;;;;5034363;28;20280;-51
2021/05/19 12:23:27;;;;;;;4.50;1.17;;;;;;;;;;5034941;28;20202;-52
2021/05/19 12:25:57;;;;;;;7.87;1.80;;;;;;;;;;5034316;28;20232;-57
2021/05/19 12:28:24;;;;;;;3.03;1.50;;;;;;;;;;5034200;28;20664;-57
2021/05/19 12:30:51;;;;;;;7.30;1.73;;;;;;;;;;5034625;28;20264;-54
2021/05/19 12:33:21;;;;;;;6.30;1.70;;;;;;;;;;5033577;28;20737;-52
2021/05/19 12:35:49;;;;;;;6.40;1.90;;;;;;;;;;5034428;28;20298;-60
2021/05/19 12:38:16;;;;;;;5.17;1.80;;;;;;;;;;5033979;28;20207;-58
2021/05/19 12:40:46;;;;;;;5.00;1.90;;;;;;;;;;5033914;28;20329;-59
2021/05/19 12:43:21;;;;;;;5.30;1.97;;;;;;;;;;5034182;28;20210;-59
2021/05/19 12:45:50;;;;;;;5.20;1.60;;;;;;;;;;5034052;28;20622;-60
2021/05/19 12:48:17;;;;;;;3.87;1.73;;;;;;;;;;5033974;28;20207;-61
2021/05/19 12:50:45;;;;;;;4.27;1.30;;;;;;;;;;5033611;28;20202;-61
2021/05/19 12:53:28;;;;;;;4.07;1.20;;;;;;;;;;5033965;28;20206;-61
2021/05/19 12:55:59;;;;;;;2.47;0.90;;;;;;;;;;5033489;28;20209;-61
2021/05/19 12:58:25;;;;;;;2.20;0.77;;;;;;;;;;5033543;28;20202;-61
2021/05/19 13:00:55;;;;;;;2.27;0.73;;;;;;;;;;5033410;28;20202;-61
2021/05/19 13:03:34;;;;;;;2.73;0.70;;;;;;;;;;5033553;28;20229;-54
2021/05/19 13:06:01;;;;;;;3.37;1.00;;;;;;;;;;5033084;28;20198;-58
2021/05/19 13:08:28;;;;;;;5.00;1.60;;;;;;;;;;5032374;28;20356;-51
2021/05/19 13:10:55;;;;;;;3.83;0.77;;;;;;;;;;5033357;28;20679;-53
2021/05/19 13:13:25;;;;;;;2.47;0.90;;;;;;;;;;5033367;28;20293;-50
2021/05/19 13:15:56;;;;;;;4.60;1.43;;;;;;;;;;5033448;28;20218;-54
2021/05/19 13:18:27;;;;;;;3.80;1.00;;;;;;;;;;5033147;28;20242;-57
2021/05/19 13:20:59;;;;;;;3.47;1.10;;;;;;;;;;5033435;28;20297;-53
2021/05/19 13:23:26;;;;;;;1.70;0.70;;;;;;;;;;5033579;28;20206;-54
2021/05/19 13:25:53;;;;;;;3.23;0.90;;;;;;;;;;5033273;28;20211;-59
2021/05/19 13:28:24;;;;;;;5.40;1.00;;;;;;;;;;5036807;28;20248;-53
2021/05/19 13:30:51;;;;;;;4.07;0.80;;;;;;;;;;5052798;28;20213;-58
2021/05/19 13:33:28;;;;;;;3.73;0.63;;;;;;;;;;5053394;28;20206;-55
2021/05/19 13:36:21;;;;;;;3.07;0.73;;;;;;;;;;5052830;28;20217;-57
2021/05/19 13:38:47;;;;;;;4.33;0.90;;;;;;;;;;5053148;28;20225;-58
2021/05/19 13:41:16;;;;;;;1.57;0.67;;;;;;;;;;5052649;28;20206;-59
2021/05/19 13:43:42;;;;;;;3.80;1.00;;;;;;;;;;5052997;28;20209;-60
2021/05/19 13:46:09;;;;;;;2.83;1.00;;;;;;;;;;5052675;28;20838;-57
2021/05/19 13:48:35;;;;;;;2.60;0.93;;;;;;;;;;5052680;28;20206;-58
2021/05/19 13:51:02;;;;;;;5.07;1.90;;;;;;;;;;5052619;28;20208;-58
2021/05/19 13:53:29;;;;;;;7.53;2.10;;;;;;;;;;5052765;28;20217;-58
2021/05/19 13:56:01;;;;;;;5.27;1.70;;;;;;;;;;5052455;28;20700;-59
2021/05/19 13:58:31;;;;;;;3.33;2.17;;;;;;;;;;5053008;28;20210;-59
2021/05/19 14:00:58;;;;;;;4.90;2.57;;;;;;;;;;5052934;28;20214;-58
2021/05/19 14:03:26;;;;;;;4.23;2.90;;;;;;;;;;5052617;28;20215;-59
2021/05/19 14:05:53;;;;;;;6.30;3.00;;;;;;;;;;5052486;28;20251;-61
2021/05/19 14:08:20;;;;;;;7.13;3.03;;;;;;;;;;5052482;28;20205;-55
2021/05/19 14:10:52;;;;;;;4.20;2.87;;;;;;;;;;5052596;28;20210;-56
2021/05/19 14:13:20;;;;;;;5.00;2.97;;;;;;;;;;5052754;28;20208;-53
2021/05/19 14:15:51;;;;;;;6.27;3.10;;;;;;;;;;5052285;28;20317;-53
2021/05/19 14:26:54;;;;;;;5.10;3.00;;;;;;;;;;5056852;28;20203;-59
2021/05/19 14:29:20;;;;;;;6.00;3.20;;;;;;;;;;5060135;28;20221;-60
2021/05/19 14:31:48;;;;;;;4.83;3.07;;;;;;;;;;5060030;28;20625;-57
2021/05/19 14:34:14;;;;;;;5.30;2.80;;;;;;;;;;5053064;28;20236;-53
2021/05/19 14:37:12;;;;;;;4.20;2.83;;;;;;;;;;5051892;28;20209;-56
2021/05/19 14:43:09;;;;;;;4.60;3.07;;;;;;;;;;5051579;28;20227;-57
2021/05/19 14:46:30;;;;;;;6.53;2.60;;;;;;;;;;5051835;28;20263;-57
2021/05/19 14:59:50;;;;;;;2.77;2.17;;;;;;;;;;5051344;28;20712;-54
2021/05/19 15:02:17;;;;;;;2.47;1.83;;;;;;;;;;5051718;28;20237;-57